Time;durP1;ratioP1;P1;durP2;ratioP2;P2;SDS_P1;SDS_P2;PMS_P1;PMS_P2;Temp;Humidity;BMP_temperature;BMP_pressure;BME280_temperature;BME280_humidity;BME280_pressure;Samples;Min_cycle;Max_cycle;Signal;HPM_P1;HPM_P2
2022/08/22 00:01:38;;;;;;;11.70;2.53;;;;;;;20.37;48.24;100266.69;5102000;28;20039;-70
2022/08/22 00:04:31;;;;;;;9.85;2.08;;;;;;;20.32;48.52;100264.38;5023996;28;20547;-72
2022/08/22 00:07:09;;;;;;;4.57;1.33;;;;;;;20.27;48.36;100271.16;5023593;28;20046;-71
2022/08/22 00:09:54;;;;;;;3.40;1.40;;;;;;;20.21;48.89;100267.16;5082969;28;20036;-71
2022/08/22 00:12:28;;;;;;;2.90;1.50;;;;;;;20.17;48.95;100264.88;5100799;28;20108;-68
2022/08/22 00:15:09;;;;;;;2.40;1.40;;;;;;;20.13;49.03;100263.47;5105610;28;20495;-73
2022/08/22 00:18:15;;;;;;;4.90;1.40;;;;;;;19.95;49.11;100244.44;5107050;28;20415;-68
2022/08/22 00:21:13;;;;;;;3.42;1.35;;;;;;;20.05;49.35;100256.06;5103772;28;20079;-70
2022/08/22 00:24:03;;;;;;;2.28;1.30;;;;;;;20.04;49.12;100257.06;5106925;28;20719;-71
2022/08/22 00:26:43;;;;;;;;;;;;;;;20.07;49.42;100261.31;5106466;28;20403;-71
2022/08/22 00:29:23;;;;;;;3.10;1.27;;;;;;;20.05;49.28;100263.28;5110224;28;19974;-72
2022/08/22 00:32:04;;;;;;;3.17;1.50;;;;;;;19.95;49.01;100244.44;5106142;28;20131;-70
2022/08/22 00:34:52;;;;;;;2.95;1.40;;;;;;;20.00;49.55;100252.09;5110136;28;20400;-70
2022/08/22 00:37:29;;;;;;;2.05;1.17;;;;;;;19.87;49.54;100231.66;5099258;28;20060;-69
2022/08/22 00:40:23;;;;;;;3.03;1.30;;;;;;;20.02;49.27;100255.50;5103654;28;20859;-71
2022/08/22 00:43:08;;;;;;;3.80;1.33;;;;;;;19.99;49.52;100258.47;5097164;28;20090;-69
2022/08/22 00:45:53;;;;;;;6.35;1.70;;;;;;;19.99;49.50;100261.16;5104009;28;20126;-69
2022/08/22 00:48:37;;;;;;;3.25;1.25;;;;;;;19.92;49.50;100253.63;5098444;28;20456;-70
2022/08/22 00:51:24;;;;;;;2.95;1.20;;;;;;;19.92;49.84;100260.84;5105019;28;20040;-70
2022/08/22 00:53:59;;;;;;;5.13;1.88;;;;;;;19.92;49.64;100261.69;5102938;28;20059;-70
2022/08/22 00:56:45;;;;;;;3.80;1.52;;;;;;;19.72;49.56;100224.97;5104071;28;20047;-71
2022/08/22 00:59:38;;;;;;;4.63;1.55;;;;;;;19.80;49.99;100238.59;5105181;28;20047;-71
2022/08/22 01:02:17;;;;;;;6.82;1.05;;;;;;;19.87;49.83;100255.00;5112795;28;20318;-71
2022/08/22 01:05:02;;;;;;;2.45;1.38;;;;;;;19.77;49.89;100235.31;5097883;28;20653;-70
2022/08/22 01:07:35;;;;;;;3.92;1.50;;;;;;;19.72;49.83;100226.78;5097113;28;20440;-71
2022/08/22 01:10:31;;;;;;;3.03;1.20;;;;;;;19.73;50.03;100237.41;5100295;28;20064;-71
2022/08/22 01:13:15;;;;;;;4.03;1.30;;;;;;;19.82;49.98;100250.06;5105856;27;20104;-72
2022/08/22 01:15:44;;;;;;;4.70;1.30;;;;;;;19.79;50.08;100253.00;5107434;28;20120;-71
2022/08/22 01:18:45;;;;;;;3.13;1.10;;;;;;;19.70;50.22;100223.38;5108125;27;20040;-71
2022/08/22 01:21:14;;;;;;;3.80;1.65;;;;;;;19.74;50.25;100247.16;5109590;28;20071;-71
2022/08/22 01:23:58;;;;;;;7.43;1.52;;;;;;;19.74;50.75;100247.16;5108282;28;20055;-71
2022/08/22 01:26:50;;;;;;;4.07;1.20;;;;;;;19.73;50.28;100242.78;5111823;27;20411;-70
2022/08/22 01:29:23;;;;;;;2.78;1.40;;;;;;;19.78;50.14;100250.44;5107689;27;20056;-71
2022/08/22 01:32:32;;;;;;;7.85;1.38;;;;;;;19.77;50.57;100246.06;5104301;28;20441;-70
2022/08/22 01:35:14;;;;;;;4.38;1.60;;;;;;;19.75;50.62;100242.66;5109460;28;20100;-73
2022/08/22 01:38:24;;;;;;;3.22;1.40;;;;;;;19.72;50.64;100232.16;5108914;28;20388;-70
2022/08/22 01:41:13;;;;;;;2.58;1.52;;;;;;;19.58;50.61;100214.56;5097894;28;20079;-71
2022/08/22 01:43:57;;;;;;;4.22;1.35;;;;;;;19.54;51.05;100210.44;5107302;27;20095;-71
2022/08/22 01:46:47;;;;;;;2.97;1.33;;;;;;;19.62;50.65;100242.88;5107886;27;20035;-71
2022/08/22 01:49:31;;;;;;;2.78;1.38;;;;;;;19.53;50.96;100223.03;5096756;28;20061;-71
2022/08/22 01:52:27;;;;;;;2.47;1.00;;;;;;;19.56;51.18;100238.88;5107708;27;20046;-69
2022/08/22 01:54:57;;;;;;;2.83;1.27;;;;;;;19.54;50.83;100229.25;5087245;28;20063;-72
2022/08/22 01:57:25;;;;;;;;;;;;;;;19.50;51.15;100234.06;5104740;28;20116;-70
2022/08/22 01:59:57;;;;;;;3.22;1.40;;;;;;;19.49;51.33;100231.47;5108901;27;19962;-70
2022/08/22 02:02:55;;;;;;;3.22;1.60;;;;;;;19.49;51.50;100235.03;5107694;28;20548;-70
2022/08/22 02:05:52;;;;;;;2.95;1.25;;;;;;;19.52;51.01;100224.00;5112539;27;20095;-71
2022/08/22 02:08:45;;;;;;;2.80;1.40;;;;;;;19.40;51.11;100211.63;5106867;27;20051;-70
2022/08/22 02:11:36;;;;;;;4.63;1.40;;;;;;;19.49;51.09;100229.66;5068351;27;20075;-70
2022/08/22 02:14:16;;;;;;;1.90;1.15;;;;;;;19.49;51.36;100234.16;5107370;27;20120;-70
2022/08/22 02:16:46;;;;;;;3.30;1.48;;;;;;;19.47;51.49;100238.81;5109011;28;20048;-70
2022/08/22 02:19:13;;;;;;;3.30;1.38;;;;;;;19.43;51.56;100235.53;5108494;28;20159;-70
2022/08/22 02:21:54;;;;;;;3.90;1.48;;;;;;;19.41;51.69;100239.31;5105268;27;20060;-70
2022/08/22 02:24:28;;;;;;;5.72;1.50;;;;;;;19.38;52.12;100228.84;5108712;28;20268;-69
2022/08/22 02:27:41;;;;;;;2.20;1.15;;;;;;;19.30;52.14;100234.03;5107353;28;20044;-70
2022/08/22 02:30:15;;;;;;;4.50;1.40;;;;;;;19.18;52.37;100222.50;5105586;27;20560;-67
2022/08/22 02:33:08;;;;;;;1.92;1.40;;;;;;;19.23;52.50;100231.00;5108509;27;20084;-68
2022/08/22 02:35:59;;;;;;;3.80;1.80;;;;;;;19.17;52.75;100232.41;5079375;28;20063;-72
2022/08/22 02:38:34;;;;;;;;;;;;;;;19.14;52.80;100235.34;5107148;27;20039;-71
2022/08/22 02:41:05;;;;;;;3.00;1.30;;;;;;;19.15;53.10;100226.31;5105956;27;19927;-68
2022/08/22 02:43:49;;;;;;;2.90;1.40;;;;;;;19.10;52.94;100227.66;5110211;27;20047;-69
2022/08/22 02:46:41;;;;;;;4.10;1.35;;;;;;;19.07;53.00;100227.91;5109438;27;20531;-69
2022/08/22 02:49:24;;;;;;;4.57;1.50;;;;;;;19.05;53.21;100227.19;5105766;28;20088;-68
2022/08/22 02:52:10;;;;;;;2.75;1.30;;;;;;;19.03;53.38;100235.41;5107312;28;20054;-69
2022/08/22 02:54:46;;;;;;;2.92;1.30;;;;;;;18.90;53.38;100213.25;5107584;28;20075;-71
2022/08/22 02:57:21;;;;;;;5.05;1.52;;;;;;;19.00;53.21;100229.44;5101956;27;20092;-71
2022/08/22 02:59:57;;;;;;;3.95;1.42;;;;;;;18.94;53.42;100228.13;5105476;27;20105;-71
2022/08/22 03:02:25;;;;;;;3.60;1.50;;;;;;;18.92;53.88;100230.06;5102622;28;20124;-70
2022/08/22 03:04:59;;;;;;;3.65;1.65;;;;;;;18.92;53.63;100228.25;5102966;27;20996;-71
2022/08/22 03:07:37;;;;;;;3.25;1.38;;;;;;;18.95;54.27;100224.47;5103115;27;20055;-71
2022/08/22 03:10:24;;;;;;;2.58;1.40;;;;;;;18.96;53.94;100231.53;5108327;27;20040;-68
2022/08/22 03:13:14;;;;;;;4.75;1.60;;;;;;;18.99;54.16;100228.59;5099636;28;20050;-70
2022/08/22 03:15:58;;;;;;;5.53;1.63;;;;;;;18.92;53.57;100228.25;5107933;27;20628;-70
2022/08/22 03:18:44;;;;;;;4.18;1.60;;;;;;;18.86;54.05;100225.25;5104277;28;20048;-71
2022/08/22 03:21:32;;;;;;;2.70;1.35;;;;;;;18.85;54.03;100231.59;5107122;28;20036;-69
2022/08/22 03:24:17;;;;;;;2.58;1.40;;;;;;;18.86;54.08;100231.47;5107997;27;20067;-70
2022/08/22 03:27:23;;;;;;;3.33;1.52;;;;;;;18.84;53.90;100227.19;5109339;27;20048;-71
2022/08/22 03:30:09;;;;;;;6.15;1.42;;;;;;;18.64;54.44;100207.41;5022527;28;20060;-68
2022/08/22 03:33:12;;;;;;;2.22;1.30;;;;;;;18.70;54.51;100222.13;5102015;28;20135;-71
2022/08/22 03:36:02;;;;;;;3.53;1.65;;;;;;;18.63;54.81;100220.94;5106706;27;20274;-71
2022/08/22 03:38:31;;;;;;;3.47;1.77;;;;;;;18.55;55.32;100221.56;5102452;28;20097;-69
2022/08/22 03:41:37;;;;;;;14.48;2.67;;;;;;;18.49;55.58;100228.25;5106254;27;20085;-71
2022/08/22 03:44:11;;;;;;;3.55;1.50;;;;;;;18.43;56.36;100227.91;5110105;27;20055;-67
2022/08/22 03:47:05;;;;;;;1.90;1.00;;;;;;;18.42;55.67;100235.09;5103659;28;20084;-69
2022/08/22 03:50:04;;;;;;;2.60;1.35;;;;;;;18.40;56.01;100241.59;5103595;28;20079;-69
2022/08/22 03:53:09;;;;;;;3.20;1.40;;;;;;;18.41;55.83;100238.78;5103514;28;20044;-70
2022/08/22 03:56:05;;;;;;;4.00;1.63;;;;;;;18.36;55.71;100240.97;5071291;28;20402;-71
2022/08/22 03:59:03;;;;;;;3.83;1.60;;;;;;;18.30;56.19;100241.47;5100949;28;20055;-68
2022/08/22 04:01:44;;;;;;;1.83;1.30;;;;;;;18.30;56.28;100240.59;5076708;28;20036;-71
2022/08/22 04:04:45;;;;;;;4.10;1.60;;;;;;;18.25;56.47;100242.84;5106369;28;20539;-71
2022/08/22 04:07:32;;;;;;;4.95;1.70;;;;;;;18.18;56.78;100247.81;5107227;28;20100;-69
2022/08/22 04:10:13;;;;;;;3.92;1.50;;;;;;;18.02;56.77;100228.59;5112169;28;20047;-70
2022/08/22 04:12:52;;;;;;;4.50;1.58;;;;;;;18.11;57.03;100255.50;5102085;28;20079;-71
2022/08/22 04:15:42;;;;;;;4.05;1.60;;;;;;;17.98;56.94;100244.06;5104749;28;20063;-71
2022/08/22 04:18:32;;;;;;;2.40;1.33;;;;;;;17.91;57.28;100226.78;5104391;28;20050;-72
2022/08/22 04:21:02;;;;;;;;;;;;;;;18.04;57.31;100254.31;5106600;28;20044;-68
2022/08/22 04:23:44;;;;;;;18.33;3.53;;;;;;;18.06;57.30;100263.06;5107182;28;19967;-70
2022/08/22 04:26:49;;;;;;;4.97;1.75;;;;;;;18.03;57.39;100259.78;5107336;28;20052;-69
2022/08/22 04:29:30;;;;;;;5.53;1.70;;;;;;;17.97;57.16;100255.75;5086276;28;20123;-71
2022/08/22 04:32:07;;;;;;;7.53;1.95;;;;;;;17.92;57.52;100252.59;5107940;28;20071;-71
2022/08/22 04:34:47;;;;;;;2.58;1.30;;;;;;;17.93;57.53;100254.31;5107899;28;20163;-71
2022/08/22 04:37:24;;;;;;;4.50;1.50;;;;;;;17.90;57.87;100254.56;5106780;28;20898;-70
2022/08/22 04:39:58;;;;;;;3.63;1.60;;;;;;;17.90;57.72;100253.69;5106624;28;20039;-68
2022/08/22 04:42:33;;;;;;;3.85;1.30;;;;;;;17.87;57.82;100252.97;5106669;28;20078;-70
2022/08/22 04:45:21;;;;;;;3.80;1.60;;;;;;;17.92;57.91;100259.78;5104706;27;20044;-68
2022/08/22 04:48:00;;;;;;;2.08;1.30;;;;;;;17.95;57.75;100267.56;5111542;27;20438;-70
2022/08/22 04:50:35;;;;;;;4.35;1.45;;;;;;;17.93;57.56;100259.69;5110115;28;20430;-70
2022/08/22 04:53:30;;;;;;;4.50;1.60;;;;;;;17.84;57.65;100233.59;5108118;28;20052;-69
2022/08/22 04:56:12;;;;;;;4.95;1.60;;;;;;;18.05;57.69;100263.19;5110272;27;20052;-69
2022/08/22 04:58:56;;;;;;;5.65;1.60;;;;;;;18.00;57.28;100254.66;5107797;28;20059;-74
2022/08/22 05:01:41;;;;;;;4.90;2.00;;;;;;;18.10;57.48;100277.91;5110196;27;20044;-71
2022/08/22 05:04:15;;;;;;;3.83;1.83;;;;;;;18.11;57.18;100268.03;5107717;28;20135;-69
2022/08/22 05:06:49;;;;;;;5.10;1.80;;;;;;;18.08;57.17;100274.53;5110841;28;20541;-70
2022/08/22 05:09:20;;;;;;;3.55;1.88;;;;;;;18.07;57.33;100271.97;5113993;27;20128;-74
2022/08/22 05:11:52;;;;;;;5.97;1.73;;;;;;;18.09;58.01;100276.22;5109815;27;20044;-70
2022/08/22 05:14:34;;;;;;;5.07;1.77;;;;;;;18.11;57.53;100284.97;5113029;28;20098;-71
2022/08/22 05:17:03;;;;;;;4.47;1.65;;;;;;;18.02;57.67;100258.06;5120533;27;20077;-68
2022/08/22 05:19:39;;;;;;;2.10;1.50;;;;;;;18.14;57.64;100275.84;5119003;27;20103;-69
2022/08/22 05:22:12;;;;;;;1.85;1.65;;;;;;;18.14;57.38;100278.53;5118140;27;20060;-69
2022/08/22 05:24:47;;;;;;;4.50;1.73;;;;;;;18.15;57.73;100273.03;5112323;28;20097;-70
2022/08/22 05:27:20;;;;;;;3.30;1.50;;;;;;;18.21;57.50;100280.59;5109317;28;20130;-69
2022/08/22 05:29:50;;;;;;;3.95;1.88;;;;;;;18.29;57.33;100279.97;5108867;27;20044;-72
2022/08/22 05:32:28;;;;;;;3.00;1.55;;;;;;;18.21;57.22;100258.31;5113914;27;20437;-70
2022/08/22 05:35:00;;;;;;;4.13;1.70;;;;;;;18.33;57.32;100276.06;5109128;27;20413;-71
2022/08/22 05:37:54;;;;;;;4.22;1.70;;;;;;;18.40;56.77;100269.25;5108512;28;20526;-70
2022/08/22 05:40:24;;;;;;;4.10;1.58;;;;;;;18.40;57.40;100279.97;5104060;28;20063;-72
2022/08/22 05:42:53;;;;;;;3.58;1.60;;;;;;;18.33;57.06;100249.25;5107297;27;20076;-73
2022/08/22 05:45:21;;;;;;;3.55;1.70;;;;;;;18.40;56.67;100255.84;5110045;27;20035;-69
2022/08/22 05:47:54;;;;;;;5.45;1.70;;;;;;;18.53;56.71;100275.31;5107045;28;20698;-71
2022/08/22 05:50:38;;;;;;;3.17;1.80;;;;;;;18.56;56.57;100280.44;5109745;27;20520;-69
2022/08/22 05:53:14;;;;;;;4.15;2.13;;;;;;;18.67;56.38;100278.72;5109031;28;20077;-70
2022/08/22 05:55:57;;;;;;;5.18;2.00;;;;;;;18.72;56.02;100285.41;5109460;28;20043;-69
2022/08/22 05:59:01;;;;;;;2.92;1.67;;;;;;;18.85;55.92;100285.25;5100685;27;20071;-71
2022/08/22 06:01:56;;;;;;;4.60;1.70;;;;;;;18.92;55.51;100279.22;5108707;27;20058;-73
2022/08/22 06:04:25;;;;;;;3.60;1.73;;;;;;;18.99;55.47;100282.25;5105312;27;20138;-71
2022/08/22 06:06:59;;;;;;;7.43;2.33;;;;;;;19.04;55.12;100276.50;5108242;28;20098;-70
2022/08/22 06:09:38;;;;;;;3.47;1.92;;;;;;;19.08;55.07;100284.16;5112401;27;20071;-71
2022/08/22 06:12:18;;;;;;;3.75;1.65;;;;;;;19.10;55.01;100279.53;5101043;27;20043;-73
2022/08/22 06:15:04;;;;;;;6.25;2.03;;;;;;;19.25;54.75;100290.78;5107247;27;20059;-71
2022/08/22 06:17:48;;;;;;;5.72;1.95;;;;;;;19.34;54.42;100290.03;5109486;27;20066;-72
2022/08/22 06:20:25;;;;;;;13.77;2.10;;;;;;;19.38;54.24;100290.59;5103890;27;20524;-72
2022/08/22 06:22:58;;;;;;;4.18;1.90;;;;;;;19.55;54.53;100292.72;5113766;27;20047;-74
2022/08/22 06:25:31;;;;;;;2.03;1.75;;;;;;;19.78;53.38;100293.44;5107192;27;20067;-71
2022/08/22 06:28:05;;;;;;;5.00;1.60;;;;;;;20.08;52.64;100297.97;5109255;27;20412;-72
2022/08/22 06:30:34;;;;;;;5.35;2.15;;;;;;;20.37;51.80;100292.72;5104314;27;20078;-71
2022/08/22 06:33:07;;;;;;;3.20;1.98;;;;;;;20.74;50.42;100295.66;5098695;28;20078;-73
2022/08/22 06:38:53;;;;;;;3.35;1.70;;;;;;;21.07;49.88;100292.56;5103098;27;20083;-72
2022/08/22 06:41:23;;;;;;;3.75;2.13;;;;;;;21.17;48.88;100311.41;5103134;27;20134;-72
2022/08/22 06:43:51;;;;;;;3.00;1.80;;;;;;;21.16;49.37;100315.94;5088060;28;20583;-70
2022/08/22 06:46:20;;;;;;;36.10;5.82;;;;;;;21.15;50.15;100311.53;5101983;27;20048;-70
2022/08/22 06:48:48;;;;;;;3.40;2.15;;;;;;;21.07;49.49;100307.88;5110417;27;20556;-71
2022/08/22 06:51:18;;;;;;;5.70;2.47;;;;;;;21.12;49.47;100309.13;5107752;28;20039;-73
2022/08/22 06:53:47;;;;;;;5.38;1.95;;;;;;;21.24;50.06;100299.97;5107369;27;20510;-71
2022/08/22 06:56:24;;;;;;;4.47;2.17;;;;;;;21.37;49.32;100294.28;5107079;28;20035;-71
2022/08/22 06:58:59;;;;;;;4.60;2.20;;;;;;;21.22;48.70;100285.78;5093779;28;20079;-72
2022/08/22 07:01:43;;;;;;;4.63;2.03;;;;;;;21.12;49.13;100282.19;5111051;27;20035;-71
2022/08/22 07:04:10;;;;;;;5.65;1.90;;;;;;;21.39;49.57;100302.22;5095852;28;20047;-70
2022/08/22 07:06:48;;;;;;;6.05;2.00;;;;;;;21.47;48.37;100302.34;5105356;27;20119;-71
2022/08/22 07:09:24;;;;;;;4.65;2.10;;;;;;;21.57;49.04;100312.09;5116254;27;20047;-72
2022/08/22 07:11:54;;;;;;;7.45;2.00;;;;;;;21.60;49.22;100314.50;5106623;27;20051;-72
2022/08/22 07:14:37;;;;;;;7.50;2.25;;;;;;;21.65;49.41;100317.63;5107135;28;20518;-73
2022/08/22 07:17:07;;;;;;;23.08;5.05;;;;;;;21.84;49.15;100302.41;5102578;28;20055;-70
2022/08/22 07:19:40;;;;;;;4.38;2.00;;;;;;;21.93;48.52;100306.91;5114097;27;20088;-73
2022/08/22 07:22:16;;;;;;;3.90;1.98;;;;;;;21.93;48.66;100323.94;5105868;27;20047;-71
2022/08/22 07:24:49;;;;;;;3.78;1.83;;;;;;;21.80;48.73;100318.03;5109325;27;20527;-72
2022/08/22 07:27:31;;;;;;;5.78;2.05;;;;;;;21.74;49.60;100323.13;5106544;28;20551;-72
2022/08/22 07:30:06;;;;;;;4.63;1.95;;;;;;;21.69;49.60;100318.19;5088008;28;20126;-71
2022/08/22 07:32:42;;;;;;;4.53;1.90;;;;;;;21.65;49.85;100320.31;5111504;27;20043;-72
2022/08/22 07:35:18;;;;;;;5.32;2.58;;;;;;;21.56;49.87;100293.41;5089428;28;20097;-71
2022/08/22 07:38:22;;;;;;;4.80;2.05;;;;;;;21.70;50.25;100312.66;5071023;28;20079;-71
2022/08/22 07:41:10;;;;;;;7.47;3.47;;;;;;;21.75;49.38;100304.13;5085014;28;20105;-71
2022/08/22 07:43:51;;;;;;;6.07;2.40;;;;;;;21.97;49.07;100302.94;5080927;28;20067;-69
2022/08/22 07:46:23;;;;;;;6.70;2.25;;;;;;;22.61;48.66;100327.22;5086211;28;20131;-71
2022/08/22 07:48:57;;;;;;;5.35;2.42;;;;;;;22.85;47.42;100333.94;5077478;28;20044;-72
2022/08/22 07:51:40;;;;;;;4.68;2.03;;;;;;;22.77;47.63;100331.16;5086870;28;20047;-73
2022/08/22 07:54:11;;;;;;;3.28;2.03;;;;;;;22.66;48.78;100337.59;5088095;28;20075;-73
2022/08/22 07:56:44;;;;;;;3.47;2.17;;;;;;;22.70;49.55;100310.13;5089162;28;20527;-68
2022/08/22 07:59:17;;;;;;;4.97;2.30;;;;;;;23.18;47.95;100332.41;5088060;28;20095;-72
2022/08/22 08:01:52;;;;;;;7.40;2.08;;;;;;;23.73;46.29;100322.28;5086685;28;20115;-69
2022/08/22 08:04:32;;;;;;;5.28;2.47;;;;;;;24.36;44.26;100320.16;5091204;28;20101;-71
2022/08/22 08:07:07;;;;;;;3.75;2.22;;;;;;;24.45;43.37;100304.78;5090531;28;20097;-72
2022/08/22 08:09:41;;;;;;;4.05;2.30;;;;;;;24.57;43.71;100319.69;5086150;28;20882;-71
2022/08/22 08:12:11;;;;;;;4.63;2.63;;;;;;;24.80;43.22;100309.13;5085109;28;20146;-72
2022/08/22 08:14:41;;;;;;;4.77;3.20;;;;;;;25.09;42.55;100327.66;5082955;28;20546;-72
2022/08/22 08:17:16;;;;;;;9.45;3.30;;;;;;;25.21;42.70;100320.88;5081095;28;20535;-73
2022/08/22 08:19:44;;;;;;;5.10;2.72;;;;;;;25.39;42.36;100327.00;5087304;28;20463;-72
2022/08/22 08:22:21;;;;;;;6.13;2.90;;;;;;;25.56;42.57;100299.88;5087614;28;20055;-72
2022/08/22 08:24:49;;;;;;;5.18;2.65;;;;;;;25.92;41.67;100312.09;5089489;28;20412;-71
2022/08/22 08:30:17;;;;;;;6.18;3.40;;;;;;;25.88;41.94;100283.59;5090903;28;20458;-73
2022/08/22 08:32:54;;;;;;;7.65;3.40;;;;;;;25.97;41.94;100312.44;5088214;28;20603;-72
2022/08/22 08:35:51;;;;;;;7.43;3.80;;;;;;;26.07;42.20;100323.91;5089155;28;20047;-73
2022/08/22 08:38:36;;;;;;;4.82;3.88;;;;;;;26.34;41.60;100319.09;5088631;28;20459;-73
2022/08/22 08:41:22;;;;;;;4.55;4.03;;;;;;;26.45;42.33;100325.00;5088267;28;20129;-72
2022/08/22 08:44:30;;;;;;;8.65;3.63;;;;;;;26.45;41.41;100321.44;5074517;28;20143;-70
2022/08/22 08:47:16;;;;;;;4.55;3.53;;;;;;;26.71;40.40;100324.72;5054459;28;20582;-72
2022/08/22 08:50:38;;;;;;;4.70;3.75;;;;;;;26.85;39.94;100318.53;5089751;28;20101;-72
2022/08/22 08:53:34;;;;;;;5.47;3.92;;;;;;;26.85;40.79;100318.53;5028197;28;20087;-72
2022/08/22 08:56:38;;;;;;;7.72;4.00;;;;;;;27.16;40.00;100318.53;5074495;28;20044;-73
2022/08/22 08:59:47;;;;;;;6.15;4.05;;;;;;;27.21;39.72;100318.00;5069314;28;20044;-72
2022/08/22 09:03:02;;;;;;;8.63;3.90;;;;;;;27.06;40.31;100319.78;5088876;28;20052;-73
2022/08/22 09:05:52;;;;;;;6.78;4.40;;;;;;;26.54;41.31;100317.66;5070539;28;20431;-70
2022/08/22 09:08:34;;;;;;;7.90;3.90;;;;;;;26.28;42.29;100315.22;5069562;28;20522;-72
2022/08/22 09:11:03;;;;;;;5.78;4.05;;;;;;;26.03;42.38;100290.00;5084880;28;20135;-73
2022/08/22 09:14:11;;;;;;;4.75;3.78;;;;;;;26.22;42.13;100313.19;5085666;28;20040;-72
2022/08/22 09:16:58;;;;;;;6.32;3.75;;;;;;;26.48;42.35;100313.78;5084553;28;20044;-74
2022/08/22 09:19:52;;;;;;;8.70;4.03;;;;;;;26.47;41.65;100301.22;5083713;28;20083;-72
2022/08/22 09:22:44;;;;;;;6.50;4.20;;;;;;;26.46;41.66;100306.84;5087822;28;20106;-72
2022/08/22 09:25:22;;;;;;;6.60;3.95;;;;;;;26.26;42.22;100281.13;5086764;28;20051;-74
2022/08/22 09:28:17;;;;;;;5.75;3.85;;;;;;;26.32;42.24;100302.16;5087394;28;20528;-72
2022/08/22 09:30:59;;;;;;;6.82;4.10;;;;;;;26.33;42.06;100301.13;5093389;28;20074;-72
2022/08/22 09:33:36;;;;;;;6.32;4.10;;;;;;;26.41;42.06;100303.81;5067548;28;20052;-74
2022/08/22 09:36:17;;;;;;;6.07;3.60;;;;;;;26.50;41.61;100292.72;5082961;28;20085;-72
2022/08/22 09:39:10;;;;;;;7.30;3.88;;;;;;;26.51;41.34;100289.00;5079618;28;20045;-73
2022/08/22 09:41:53;;;;;;;3.97;3.58;;;;;;;26.60;40.98;100286.25;5086994;28;20547;-73
2022/08/22 09:44:48;;;;;;;4.57;3.60;;;;;;;26.70;39.95;100281.44;5086310;28;20138;-71
2022/08/22 09:47:41;;;;;;;4.38;3.20;;;;;;;26.76;39.55;100267.97;5087927;28;20619;-72
2022/08/22 09:50:30;;;;;;;5.68;3.60;;;;;;;26.86;39.49;100260.44;5083942;28;20064;-73
2022/08/22 09:53:38;;;;;;;4.97;3.38;;;;;;;27.04;38.89;100264.78;5089898;28;20051;-72
2022/08/22 09:56:07;;;;;;;7.70;3.90;;;;;;;27.19;38.54;100258.34;5092378;28;20044;-72
2022/08/22 09:58:56;;;;;;;4.40;3.25;;;;;;;27.27;37.96;100256.59;5092584;28;20162;-72
2022/08/22 10:01:26;;;;;;;4.40;3.25;;;;;;;27.38;37.54;100253.44;5098094;28;20126;-73
2022/08/22 10:04:13;;;;;;;5.25;3.58;;;;;;;27.40;37.06;100248.63;5089815;28;20044;-75
2022/08/22 10:07:12;;;;;;;3.35;3.00;;;;;;;27.25;36.80;100224.97;5091002;28;20108;-74
2022/08/22 10:10:00;;;;;;;3.78;3.25;;;;;;;27.48;37.02;100237.69;5076320;28;20056;-73
2022/08/22 10:12:32;;;;;;;3.50;2.60;;;;;;;27.57;36.49;100231.16;5080997;28;20480;-73
2022/08/22 10:15:07;;;;;;;7.43;3.85;;;;;;;27.68;36.87;100240.78;5088821;28;20402;-74
2022/08/22 10:17:39;;;;;;;5.78;3.65;;;;;;;27.47;36.60;100208.81;5083866;28;20044;-72
2022/08/22 10:20:31;;;;;;;4.82;3.38;;;;;;;27.52;37.31;100226.28;5082941;28;20071;-73
2022/08/22 10:23:17;;;;;;;3.72;3.28;;;;;;;27.61;37.25;100226.22;5084717;28;20551;-73
2022/08/22 10:25:56;;;;;;;3.80;2.75;;;;;;;27.76;35.72;100230.63;5083493;28;20057;-69
2022/08/22 10:28:38;;;;;;;10.63;3.75;;;;;;;27.79;35.19;100229.41;5086543;28;20082;-72
2022/08/22 10:31:24;;;;;;;5.28;3.55;;;;;;;27.83;35.00;100215.25;5087194;28;20059;-70
2022/08/22 10:33:51;;;;;;;4.03;2.53;;;;;;;27.86;34.04;100209.41;5071107;28;20067;-72
2022/08/22 10:36:41;;;;;;;4.03;2.65;;;;;;;28.00;33.14;100220.50;5105651;28;20047;-72
2022/08/22 10:39:15;;;;;;;6.22;2.92;;;;;;;28.02;32.48;100197.47;5105408;27;20112;-71
2022/08/22 10:42:23;;;;;;;4.28;2.78;;;;;;;28.35;32.10;100216.16;5107549;28;20066;-72
2022/08/22 10:45:11;;;;;;;3.45;2.40;;;;;;;28.37;31.95;100219.53;5117777;27;20047;-72
2022/08/22 10:48:03;;;;;;;3.63;2.38;;;;;;;28.02;31.07;100202.94;5109121;28;20043;-73
2022/08/22 10:50:41;;;;;;;3.25;2.00;;;;;;;27.93;31.43;100207.66;5106645;28;20047;-72
2022/08/22 10:53:32;;;;;;;3.25;2.38;;;;;;;28.06;32.03;100217.00;5110018;27;20126;-74
2022/08/22 10:56:07;;;;;;;6.15;2.70;;;;;;;28.15;31.76;100208.56;5106600;28;20122;-72
2022/08/22 10:58:48;;;;;;;3.63;2.50;;;;;;;28.30;31.94;100210.44;5111716;27;20130;-69
2022/08/22 11:01:18;;;;;;;5.28;2.95;;;;;;;28.54;31.74;100210.09;5107755;28;20047;-72
2022/08/22 11:04:50;;;;;;;3.47;2.33;;;;;;;28.76;31.24;100211.81;5099081;28;20431;-71
2022/08/22 11:07:47;;;;;;;5.15;2.30;;;;;;;28.86;30.75;100203.34;5103273;28;20104;-71
2022/08/22 11:10:21;;;;;;;3.80;2.38;;;;;;;29.02;30.45;100210.41;5105585;28;20252;-74
2022/08/22 11:13:15;;;;;;;3.60;2.25;;;;;;;29.12;30.88;100206.28;5106575;28;20051;-71
2022/08/22 11:16:06;;;;;;;4.13;2.17;;;;;;;29.17;30.07;100205.72;5105432;28;20612;-72
2022/08/22 11:18:53;;;;;;;2.97;2.28;;;;;;;29.12;29.75;100209.00;5108145;28;20047;-72
2022/08/22 11:21:40;;;;;;;2.22;1.88;;;;;;;28.95;30.00;100199.44;5104572;28;20050;-72
2022/08/22 11:24:38;;;;;;;3.60;2.33;;;;;;;28.67;29.93;100201.22;5087893;28;20560;-72
2022/08/22 11:27:42;;;;;;;7.07;2.42;;;;;;;28.23;29.25;100197.59;5109101;27;20179;-72
2022/08/22 11:30:16;;;;;;;4.97;1.90;;;;;;;27.98;29.80;100196.19;5097558;28;20552;-73
2022/08/22 11:33:21;;;;;;;3.85;1.80;;;;;;;27.79;30.13;100199.50;5106099;28;20526;-72
2022/08/22 11:36:26;;;;;;;4.20;2.00;;;;;;;27.66;30.56;100175.66;5107473;28;20083;-71
2022/08/22 11:39:15;;;;;;;3.60;2.05;;;;;;;28.08;30.05;100195.88;5107117;28;20112;-72
2022/08/22 11:42:05;;;;;;;2.17;1.75;;;;;;;28.41;28.91;100193.59;5087762;28;20344;-72
2022/08/22 11:44:40;;;;;;;3.30;1.73;;;;;;;28.40;28.43;100189.19;5101456;27;20085;-72
2022/08/22 11:47:20;;;;;;;3.70;1.80;;;;;;;28.04;29.40;100187.25;5106120;28;20432;-72
2022/08/22 11:50:24;;;;;;;4.47;2.03;;;;;;;27.80;29.96;100187.56;5096768;28;20093;-73
2022/08/22 11:53:12;;;;;;;4.28;1.90;;;;;;;27.86;30.07;100186.84;5107205;27;20514;-71
2022/08/22 11:55:58;;;;;;;3.47;2.08;;;;;;;28.04;30.07;100183.69;5104683;28;20100;-73
2022/08/22 11:58:44;;;;;;;3.42;1.90;;;;;;;27.98;30.11;100179.88;5107171;28;20051;-74
2022/08/22 12:01:15;;;;;;;4.70;2.00;;;;;;;27.97;30.04;100177.34;5101502;28;20187;-73
2022/08/22 12:03:56;;;;;;;5.90;1.90;;;;;;;28.06;29.63;100177.03;5111436;28;20146;-73
2022/08/22 12:06:48;;;;;;;4.47;2.22;;;;;;;28.31;29.75;100166.69;5102443;28;20451;-75
2022/08/22 12:09:43;;;;;;;5.15;1.92;;;;;;;28.72;28.27;100180.53;5101109;28;20486;-73
2022/08/22 12:12:24;;;;;;;3.80;2.13;;;;;;;28.96;27.88;100166.53;5102360;28;20051;-75
2022/08/22 12:15:04;;;;;;;3.00;1.67;;;;;;;28.95;27.55;100164.88;5106395;28;20407;-74
2022/08/22 12:18:11;;;;;;;3.47;1.83;;;;;;;29.10;27.50;100170.22;5112092;28;20131;-74
2022/08/22 12:21:13;;;;;;;4.80;2.20;;;;;;;29.23;27.37;100161.28;5111341;28;20085;-73
2022/08/22 12:23:49;;;;;;;5.60;2.40;;;;;;;29.39;27.91;100169.22;5107248;28;20514;-74
2022/08/22 12:26:34;;;;;;;5.38;2.45;;;;;;;29.57;27.31;100152.34;5107612;28;20075;-73
2022/08/22 12:29:41;;;;;;;2.47;1.65;;;;;;;29.59;26.83;100148.34;5097962;28;20120;-72
2022/08/22 12:32:35;;;;;;;2.92;1.95;;;;;;;29.66;26.27;100148.38;5004092;28;20046;-73
2022/08/22 12:35:38;;;;;;;5.00;2.08;;;;;;;29.65;26.36;100150.25;5104165;28;20283;-72
2022/08/22 12:38:37;;;;;;;6.90;2.40;;;;;;;29.69;26.88;100128.03;5105670;28;20490;-72
2022/08/22 12:41:17;;;;;;;6.07;2.45;;;;;;;29.93;25.99;100143.88;5099401;28;20044;-72
2022/08/22 12:44:15;;;;;;;3.30;1.67;;;;;;;30.08;25.43;100136.41;5104855;28;20493;-74
2022/08/22 12:47:06;;;;;;;3.25;1.80;;;;;;;30.12;25.73;100129.50;5103402;28;20047;-74
2022/08/22 12:49:56;;;;;;;3.72;2.13;;;;;;;30.26;25.25;100133.97;5109011;28;20101;-71